Time;durP1;ratioP1;P1;durP2;ratioP2;P2;SDS_P1;SDS_P2;PMS_P1;PMS_P2;Temp;Humidity;BMP_temperature;BMP_pressure;BME280_temperature;BME280_humidity;BME280_pressure;Samples;Min_cycle;Max_cycle;Signal;HPM_P1;HPM_P2
2023/10/04 00:00:20;;;;;;;;;16.00;13.00;;;;;12.77;100.00;99884.53;6278842;20;3486722;-46
2023/10/04 00:02:52;;;;;;;;;17.50;14.50;;;;;12.21;100.00;99873.00;6311434;20;2491937;-50
2023/10/04 00:05:24;;;;;;;;;17.00;15.00;;;;;12.34;100.00;99887.38;6276979;20;2491936;-46
2023/10/04 00:07:56;;;;;;;;;13.33;13.33;;;;;11.95;100.00;99882.75;6281060;20;3527445;-49
2023/10/04 00:10:24;;;;;;;;;16.00;13.00;;;;;11.81;100.00;99889.84;6313346;20;2806567;-46
2023/10/04 00:12:53;;;;;;;;;14.00;10.50;;;;;12.14;100.00;99879.72;6281700;20;2788839;-46
2023/10/04 00:15:25;;;;;;;;;15.00;13.50;;;;;11.91;100.00;99876.72;6278792;20;3418053;-45
2023/10/04 00:17:55;;;;;;;;;13.67;12.00;;;;;12.32;100.00;99880.38;6309364;20;3506021;-48
2023/10/04 00:20:31;;;;;;;;;15.67;14.00;;;;;12.18;100.00;99892.91;6308955;20;3540914;-46
2023/10/04 00:23:04;;;;;;;;;13.33;13.33;;;;;12.25;100.00;99882.63;6310065;20;3523306;-47
2023/10/04 00:25:35;;;;;;;;;14.67;13.33;;;;;12.58;100.00;99875.94;6277089;20;3526527;-46
2023/10/04 00:28:04;;;;;;;;;13.50;10.50;;;;;12.42;100.00;99885.03;6311931;20;2789940;-48
2023/10/04 00:30:33;;;;;;;;;15.33;14.00;;;;;13.03;100.00;99889.97;6280977;20;3539866;-48
2023/10/04 00:33:06;;;;;;;;;14.33;13.33;;;;;12.93;100.00;99896.00;6277582;20;3523270;-47
2023/10/04 00:35:40;;;;;;;;;18.00;14.00;;;;;13.22;100.00;99901.22;6308957;20;3531670;-46
2023/10/04 00:38:13;;;;;;;;;13.67;13.67;;;;;13.06;100.00;99905.94;6278472;20;3526425;-46
2023/10/04 00:40:43;;;;;;;;;20.00;17.00;;;;;13.04;100.00;99899.81;6278240;20;2487815;-49
2023/10/04 00:43:13;;;;;;;;;16.00;16.00;;;;;12.82;100.00;99893.19;6277029;20;2491946;-46
2023/10/04 00:45:50;;;;;;;;;15.00;15.00;;;;;12.83;100.00;99896.72;6277852;20;2500337;-47
2023/10/04 00:48:29;;;;;;;;;14.67;14.00;;;;;12.83;100.00;99905.66;6278779;20;3541930;-46
2023/10/04 00:50:59;;;;;;;;;18.00;16.67;;;;;13.14;100.00;99900.91;6277321;20;3567959;-45
2023/10/04 00:53:29;;;;;;;;;17.00;15.00;;;;;13.15;100.00;99914.25;6279049;20;2816981;-46
2023/10/04 00:55:58;;;;;;;;;15.67;15.67;;;;;13.34;100.00;99921.09;6280607;20;3541964;-48
2023/10/04 00:58:28;;;;;;;;;13.33;12.67;;;;;12.38;100.00;99910.47;6279900;20;3535809;-47
2023/10/04 01:00:57;;;;;;;;;18.50;16.50;;;;;12.33;100.00;99907.22;6280834;20;2824276;-45
2023/10/04 01:03:30;;;;;;;;;15.67;13.00;;;;;12.65;100.00;99917.69;6283945;20;3528538;-50
2023/10/04 01:06:02;;;;;;;;;15.33;13.00;;;;;12.03;100.00;99910.94;6311934;20;3531486;-46
2023/10/04 01:08:32;;;;;;;;;15.00;14.00;;;;;12.02;100.00;99914.56;6311449;20;2808627;-47
2023/10/04 01:11:00;;;;;;;;;8.50;8.50;;;;;12.03;100.00;99920.81;6281505;20;2752384;-46
2023/10/04 01:13:29;;;;;;;;;18.00;16.00;;;;;12.06;100.00;99912.56;6283948;20;3552357;-49
2023/10/04 01:15:58;;;;;;;;;15.50;12.50;;;;;11.70;100.00;99918.41;6314905;20;2494026;-45
2023/10/04 01:18:29;;;;;;;;;17.67;15.00;;;;;11.93;100.00;99923.22;6282666;20;3552100;-47
2023/10/04 01:20:59;;;;;;;;;13.00;11.67;;;;;12.23;100.00;99920.38;6282087;20;2781727;-45
2023/10/04 01:23:29;;;;;;;;;15.00;14.33;;;;;12.24;100.00;99921.25;6313304;20;3532575;-45
2023/10/04 01:25:57;;;;;;;;;17.33;15.67;;;;;12.38;100.00;99926.63;6280912;20;3553594;-45
2023/10/04 01:28:30;;;;;;;;;16.67;15.67;;;;;12.48;100.00;99941.22;6281800;20;3553499;-50
2023/10/04 01:31:00;;;;;;;;;20.00;16.00;;;;;12.04;100.00;99931.47;6279547;20;2489979;-46
2023/10/04 01:33:28;;;;;;;;;21.00;18.00;;;;;12.00;100.00;99927.25;6281414;20;2496233;-46
2023/10/04 01:35:59;;;;;;;;;14.33;14.00;;;;;11.98;100.00;99937.25;6279423;20;3537870;-46
2023/10/04 01:38:28;;;;;;;;;13.50;13.50;;;;;11.84;100.00;99929.16;6285097;20;2783719;-45
2023/10/04 01:40:57;;;;;;;;;17.67;17.00;;;;;11.69;100.00;99916.66;6284953;20;3564857;-48
2023/10/04 01:43:27;;;;;;;;;17.33;15.00;;;;;11.62;100.00;99911.66;6282499;20;3541963;-44
2023/10/04 01:46:00;;;;;;;;;18.00;15.00;;;;;12.28;100.00;99918.25;6280920;20;3551723;-44
2023/10/04 01:48:34;;;;;;;;;13.33;13.33;;;;;11.87;100.00;99910.16;6280172;20;3531525;-50
2023/10/04 01:51:06;;;;;;;;;16.00;16.00;;;;;11.63;100.00;99907.16;6312508;20;2820096;-47
2023/10/04 01:53:35;;;;;;;;;15.67;14.33;;;;;11.96;100.00;99901.50;6281068;20;3550369;-48
2023/10/04 01:56:06;;;;;;;;;14.33;14.00;;;;;11.56;100.00;99906.69;6281778;20;3537849;-44
2023/10/04 01:58:37;;;;;;;;;16.50;15.00;;;;;11.71;100.00;99890.53;6280251;20;2812891;-47
2023/10/04 02:01:06;;;;;;;;;17.67;15.00;;;;;11.95;100.00;99898.91;6278087;20;3553401;-46
2023/10/04 02:03:34;;;;;;;;;22.00;16.00;;;;;12.08;100.00;99892.66;6278565;20;2487805;-48
2023/10/04 02:06:05;;;;;;;;;15.00;15.00;;;;;11.84;100.00;99899.56;6279265;20;3532623;-44
2023/10/04 02:08:34;;;;;;;;;15.00;15.00;;;;;11.75;100.00;99895.63;6281736;20;3546102;-46
2023/10/04 02:11:05;;;;;;;;;18.00;16.50;;;;;12.00;100.00;99902.16;6279715;20;2835656;-44
2023/10/04 02:13:35;;;;;;;;;15.33;15.33;;;;;11.98;100.00;99902.28;6281026;20;3548205;-46
2023/10/04 02:16:05;;;;;;;;;18.67;17.67;;;;;12.01;100.00;99887.75;6279624;20;3554670;-48
2023/10/04 02:18:34;;;;;;;;;19.00;18.00;;;;;12.05;100.00;99903.59;6284694;20;2823225;-43
2023/10/04 02:21:03;;;;;;;;;18.50;17.50;;;;;12.17;100.00;99922.63;6308850;20;2842072;-49
2023/10/04 02:23:32;;;;;;;;;21.00;18.50;;;;;12.41;100.00;99921.03;6279841;20;2500232;-49
2023/10/04 02:26:00;;;;;;;;;17.00;16.00;;;;;12.58;100.00;99921.75;6279001;20;2483675;-47
2023/10/04 02:28:30;;;;;;;;;22.00;19.50;;;;;13.05;100.00;99925.78;6278815;20;2839886;-45
2023/10/04 02:31:02;;;;;;;;;19.00;16.00;;;;;13.23;100.00;99924.50;6281224;20;2835689;-47
2023/10/04 02:33:34;;;;;;;;;22.33;19.00;;;;;13.00;100.00;99927.91;6285238;20;3573226;-46
2023/10/04 02:36:07;;;;;;;;;20.50;19.50;;;;;12.65;100.00;99939.22;6278702;20;2839018;-44
2023/10/04 02:38:36;;;;;;;;;17.00;17.00;;;;;12.46;100.00;99948.53;6280829;20;2819139;-44
2023/10/04 02:41:06;;;;;;;;;19.00;17.00;;;;;12.74;100.00;99946.69;6281513;20;2827554;-46
2023/10/04 02:43:36;;;;;;;;;18.00;17.00;;;;;13.65;100.00;99945.97;6281112;20;2823431;-44
2023/10/04 02:46:05;;;;;;;;;23.00;19.00;;;;;13.83;98.53;99948.22;6280806;20;2845123;-45
2023/10/04 02:48:35;;;;;;;;;23.67;20.33;;;;;14.09;97.28;99950.91;6279580;20;3585673;-45
2023/10/04 02:51:05;;;;;;;;;19.00;14.50;;;;;14.12;97.14;99960.63;6277936;20;2823205;-45
2023/10/04 02:53:37;;;;;;;;;22.00;20.00;;;;;14.20;96.24;99964.47;6278849;20;2844074;-49
2023/10/04 02:56:07;;;;;;;;;21.50;18.00;;;;;14.32;95.49;99967.25;6279463;20;2840026;-46
2023/10/04 02:58:36;;;;;;;;;18.00;16.00;;;;;14.31;95.68;99965.53;6271164;20;2835868;-45
2023/10/04 03:01:05;;;;;;;;;21.00;18.00;;;;;14.37;95.50;99986.69;6279552;20;2828472;-46
2023/10/04 03:03:35;;;;;;;;;21.00;20.00;;;;;14.32;95.91;99983.47;6277564;20;2844047;-46
2023/10/04 03:06:04;;;;;;;;;22.00;18.67;;;;;14.35;96.00;99978.72;6282757;20;3583589;-46
2023/10/04 03:08:34;;;;;;;;;19.50;15.50;;;;;14.35;96.05;99984.13;6279449;20;2825289;-45
2023/10/04 03:11:03;;;;;;;;;20.50;16.00;;;;;14.40;95.90;99987.34;6283293;20;2833669;-46
2023/10/04 03:13:34;;;;;;;;;16.50;15.50;;;;;14.35;96.00;99989.53;6280204;20;2821241;-45
2023/10/04 03:16:03;;;;;;;;;19.00;16.50;;;;;14.36;95.89;99998.50;6278067;20;2831572;-48
2023/10/04 03:18:35;;;;;;;;;20.00;17.00;;;;;14.33;96.34;100001.41;6281233;20;2825307;-48
2023/10/04 03:23:35;;;;;;;;;17.00;16.33;;;;;14.37;96.68;100009.16;6315183;20;3561821;-46
2023/10/04 03:26:04;;;;;;;;;16.50;15.00;;;;;14.79;96.69;100014.28;6311624;20;2819039;-45
2023/10/04 03:28:36;;;;;;;;;17.50;17.50;;;;;14.94;96.92;100018.56;6276930;20;2841954;-46
2023/10/04 03:31:13;;;;;;;;;17.00;16.50;;;;;15.46;95.62;100020.03;6279098;20;2854420;-49
2023/10/04 03:33:46;;;;;;;;;16.50;15.00;;;;;15.64;95.10;100034.00;6281401;20;2815904;-45
2023/10/04 03:36:17;;;;;;;;;20.50;17.00;;;;;15.76;94.99;100026.81;6275681;20;2489854;-46
2023/10/04 03:38:49;;;;;;;;;18.50;14.50;;;;;15.75;94.94;100039.47;6281421;20;2817975;-45
2023/10/04 03:41:19;;;;;;;;;16.50;14.50;;;;;15.75;94.93;100031.38;6282147;20;2818009;-49
2023/10/04 03:43:48;;;;;;;;;14.33;13.00;;;;;15.84;94.56;100031.63;6279520;20;3516967;-45
2023/10/04 03:46:18;;;;;;;;;14.67;13.00;;;;;15.81;94.40;100035.44;6277517;20;3532674;-47
2023/10/04 03:48:49;;;;;;;;;15.00;14.50;;;;;15.84;94.46;100037.91;6278057;20;2496153;-45
2023/10/04 03:51:22;;;;;;;;;15.33;12.00;;;;;15.89;94.19;100053.78;6280425;20;3536764;-48
2023/10/04 03:53:53;;;;;;;;;10.40;10.00;;;;;16.06;93.40;100055.16;6303281;20;2789850;-45
2023/10/04 03:56:25;;;;;;;;;14.67;12.00;;;;;16.10;92.34;100059.38;6279479;20;3522259;-45
2023/10/04 03:58:54;;;;;;;;;7.00;7.00;;;;;16.18;91.68;100063.19;6313935;20;2742096;-46
2023/10/04 04:01:22;;;;;;;;;10.00;10.00;;;;;16.14;90.96;100066.25;6285681;20;2793997;-47
2023/10/04 04:03:50;;;;;;;;;10.50;8.50;;;;;16.40;88.64;100075.94;6290463;20;2755529;-45
2023/10/04 04:06:18;;;;;;;;;5.50;5.50;;;;;16.54;86.97;100082.94;6278975;20;2748248;-45
2023/10/04 04:08:47;;;;;;;;;5.00;5.00;;;;;16.76;84.44;100092.91;6280312;20;2748187;-46
2023/10/04 04:11:15;;;;;;;;;5.00;5.00;;;;;16.73;84.05;100084.19;6283804;20;2746121;-53
2023/10/04 04:13:45;;;;;;;;;5.00;5.00;;;;;16.91;82.38;100084.56;6285523;20;2705488;-50
2023/10/04 04:16:17;;;;;;;;;5.00;4.00;;;;;17.16;79.85;100078.84;6283900;20;2741971;-49
2023/10/04 04:18:55;;;;;;;;;5.00;2.00;;;;;17.20;79.20;100079.47;6286160;20;2754535;-49
2023/10/04 04:21:24;;;;;;;;;1.50;1.50;;;;;17.30;78.04;100083.13;6284994;20;2728421;-49
2023/10/04 04:23:52;;;;;;;;;2.00;2.00;;;;;17.24;78.52;100089.91;6282310;20;2751386;-48
2023/10/04 04:26:23;;;;;;;;;4.00;3.00;;;;;17.22;78.37;100096.44;6283513;20;2755624;-49
2023/10/04 04:28:51;;;;;;;;;5.50;2.50;;;;;17.29;77.67;100101.25;6289456;20;2756521;-50
2023/10/04 04:31:20;;;;;;;;;2.00;2.00;;;;;17.27;77.42;100107.78;6288518;20;2750323;-45
2023/10/04 04:33:49;;;;;;;;;6.00;2.00;;;;;17.11;78.49;100110.91;6295461;20;2750480;-49
2023/10/04 04:36:20;;;;;;;;;2.33;2.00;;;;;17.07;78.56;100118.44;6306415;20;2744001;-46
2023/10/04 04:38:48;;;;;;;;;4.00;3.00;;;;;16.94;78.91;100109.59;6316854;20;2756636;-50
2023/10/04 04:41:21;;;;;;;;;3.00;3.00;;;;;17.02;78.80;100103.53;6291507;20;2756660;-47
2023/10/04 04:43:49;;;;;;;;;2.00;2.00;;;;;16.96;78.91;100096.78;6291338;20;2739917;-47
2023/10/04 04:46:18;;;;;;;;;2.50;2.50;;;;;16.88;79.63;100108.25;6286689;20;2744036;-47
2023/10/04 04:48:47;;;;;;;;;2.50;2.50;;;;;16.92;79.34;100110.69;6289588;20;2756505;-45
2023/10/04 04:51:17;;;;;;;;;3.00;3.00;;;;;16.93;79.72;100126.84;6289519;20;2727342;-45
2023/10/04 04:53:46;;;;;;;;;5.00;4.00;;;;;16.78;80.64;100123.53;6287309;20;2756516;-45
2023/10/04 04:56:15;;;;;;;;;4.00;4.00;;;;;16.86;80.59;100115.63;6288170;20;2755501;-45
2023/10/04 04:58:48;;;;;;;;;4.00;4.00;;;;;16.84;79.56;100133.88;6287678;20;2756629;-44
2023/10/04 05:01:17;;;;;;;;;2.50;2.50;;;;;16.82;80.15;100135.84;6287908;20;2754509;-45
2023/10/04 05:03:45;;;;;;;;;4.00;4.00;;;;;16.82;80.28;100143.13;6288762;20;2742005;-45
2023/10/04 05:06:22;;;;;;;;;5.50;3.50;;;;;16.93;79.53;100144.97;6287273;20;2752489;-45
2023/10/04 05:08:54;;;;;;;;;5.00;5.00;;;;;16.64;80.95;100165.28;6287994;20;2750296;-44
2023/10/04 05:11:25;;;;;;;;;5.50;4.00;;;;;16.94;79.31;100162.97;6289124;20;2742052;-45
2023/10/04 05:13:55;;;;;;;;;3.00;3.00;;;;;16.90;79.64;100165.06;6287711;20;2736865;-47
2023/10/04 05:16:25;;;;;;;;;3.00;3.00;;;;;16.84;80.17;100155.56;6284356;20;2739895;-45
2023/10/04 05:18:55;;;;;;;;;4.40;3.80;;;;;16.87;80.38;100160.75;6312202;20;2750301;-45
2023/10/04 05:21:23;;;;;;;;;4.00;4.00;;;;;16.82;80.87;100165.66;6284145;20;2748191;-51
2023/10/04 05:23:55;;;;;;;;;4.00;4.00;;;;;17.00;80.29;100167.91;6287032;20;2749283;-45
2023/10/04 05:26:24;;;;;;;;;3.00;3.00;;;;;17.01;80.06;100183.19;6287664;20;2756532;-48
2023/10/04 05:28:52;;;;;;;;;5.00;4.00;;;;;17.04;80.38;100180.25;6286504;20;2746074;-47
2023/10/04 05:31:20;;;;;;;;;4.50;3.00;;;;;17.00;80.42;100181.47;6288462;20;2748359;-45
2023/10/04 05:33:48;;;;;;;;;3.50;3.50;;;;;17.13;80.31;100182.19;6286803;20;2746231;-45
2023/10/04 05:36:17;;;;;;;;;5.00;3.00;;;;;17.08;79.77;100179.84;6288036;20;2748188;-44
2023/10/04 05:38:45;;;;;;;;;3.00;3.00;;;;;17.02;79.93;100176.78;6286763;20;2735735;-46
2023/10/04 05:41:14;;;;;;;;;3.00;3.00;;;;;17.10;79.78;100188.75;6292039;20;2748207;-45
2023/10/04 05:43:43;;;;;;;;;3.00;3.00;;;;;17.17;79.59;100193.66;6290127;20;2739876;-49
2023/10/04 05:46:12;;;;;;;;;3.00;3.00;;;;;17.14;79.70;100192.09;6287250;20;2744056;-49
2023/10/04 05:48:40;;;;;;;;;4.00;3.00;;;;;17.06;80.13;100197.25;6290399;20;2756599;-44
2023/10/04 05:51:08;;;;;;;;;6.00;3.00;;;;;17.16;79.57;100194.66;6291871;20;2755510;-45
2023/10/04 05:53:37;;;;;;;;;3.00;3.00;;;;;17.19;79.85;100197.97;6286952;20;2756501;-46
2023/10/04 05:56:06;;;;;;;;;4.67;3.00;;;;;17.19;79.44;100197.97;6283690;20;2754453;-44
2023/10/04 05:58:35;;;;;;;;;2.00;2.00;;;;;17.25;79.35;100192.06;6314032;20;2737929;-47
2023/10/04 06:01:03;;;;;;;;;3.00;2.00;;;;;17.19;78.98;100192.53;6317348;20;2753470;-47
2023/10/04 06:03:32;;;;;;;;;1.00;1.00;;;;;17.24;78.75;100206.59;6318203;20;2725328;-46
2023/10/04 06:06:01;;;;;;;;;2.33;2.33;;;;;17.34;78.14;100210.31;6288332;20;2756578;-45
2023/10/04 06:08:30;;;;;;;;;2.33;1.00;;;;;17.28;78.94;100224.38;6318035;20;2738817;-49
2023/10/04 06:10:59;;;;;;;;;2.00;2.00;;;;;17.45;77.05;100230.28;6317178;20;2738939;-44
2023/10/04 06:13:27;;;;;;;;;1.00;1.00;;;;;17.56;75.62;100241.13;6292183;20;2724251;-48
2023/10/04 06:15:56;;;;;;;;;1.00;1.00;;;;;17.63;75.07;100244.22;6317807;20;2727876;-45
2023/10/04 06:18:31;;;;;;;;;1.00;1.00;;;;;17.63;75.26;100242.34;6317418;20;2727443;-45
2023/10/04 06:20:59;;;;;;;;;0.00;0.00;;;;;17.72;74.38;100230.75;6293632;20;2727379;-47
2023/10/04 06:23:31;;;;;;;;;4.00;2.00;;;;;17.72;74.65;100248.88;6315940;20;2746172;-46
2023/10/04 06:26:00;;;;;;;;;1.00;1.00;;;;;17.78;74.64;100238.38;6316926;20;2725337;-48
2023/10/04 06:28:28;;;;;;;;;0.33;0.33;;;;;17.79;75.03;100250.13;6318944;20;2729545;-45
2023/10/04 06:30:57;;;;;;;;;1.00;1.00;;;;;17.91;74.79;100261.84;6316518;20;2738771;-45
2023/10/04 06:33:26;;;;;;;;;1.00;1.00;;;;;17.80;75.10;100262.75;6318155;20;2735826;-47
2023/10/04 06:35:55;;;;;;;;;0.60;0.60;;;;;17.97;75.06;100272.19;6338388;20;2727348;-45
2023/10/04 06:38:28;;;;;;;;;1.80;1.00;;;;;17.92;75.37;100272.56;6359111;20;2456619;-49
2023/10/04 06:40:56;;;;;;;;;3.00;3.00;;;;;18.04;74.17;100273.41;6318077;20;2746135;-46
2023/10/04 06:43:25;;;;;;;;;1.00;1.00;;;;;17.98;74.49;100276.63;6318155;20;2724346;-51
2023/10/04 06:45:54;;;;;;;;;3.00;1.33;;;;;18.06;74.33;100279.59;6316162;20;2733647;-49
2023/10/04 06:48:23;;;;;;;;;2.33;1.33;;;;;18.06;74.23;100278.72;6317584;20;2736745;-49
2023/10/04 06:50:51;;;;;;;;;3.00;3.00;;;;;17.99;73.02;100287.38;6313736;20;2737822;-46
2023/10/04 06:53:22;;;;;;;;;3.00;3.00;;;;;17.99;72.93;100286.53;6337398;20;2740137;-47
2023/10/04 06:55:51;;;;;;;;;4.00;2.00;;;;;17.91;74.16;100286.31;6310747;20;2751426;-45
2023/10/04 06:58:21;;;;;;;;;3.00;2.00;;;;;17.96;73.45;100289.50;6316461;20;2741155;-48
2023/10/04 07:00:50;;;;;;;;;0.67;0.67;;;;;18.13;71.80;100291.66;6318296;20;2731993;-46
2023/10/04 07:03:21;;;;;;;;;113.88;106.25;;;;;18.20;72.19;100298.31;6308190;20;3702447;-47
2023/10/04 07:05:50;;;;;;;;;1.67;1.67;;;;;18.19;71.82;100296.59;6285154;20;2738974;-45
2023/10/04 07:08:19;;;;;;;;;6.00;4.00;;;;;18.27;71.40;100295.94;6315118;20;2748717;-47
2023/10/04 07:10:47;;;;;;;;;3.00;3.00;;;;;18.55;70.36;100308.06;6314448;20;2752538;-45
2023/10/04 07:13:16;;;;;;;;;2.67;2.00;;;;;18.48;70.04;100301.41;6309545;20;2742031;-52
2023/10/04 07:15:45;;;;;;;;;0.00;0.00;;;;;18.80;68.71;100308.72;6316169;20;2725310;-47
2023/10/04 07:18:14;;;;;;;;;2.00;1.00;;;;;18.57;68.09;100308.81;6316794;20;2724341;-47
2023/10/04 07:20:43;;;;;;;;;2.60;2.60;;;;;18.70;67.81;100316.78;6340558;20;2750296;-45
2023/10/04 07:23:13;;;;;;;;;1.33;1.33;;;;;18.69;67.43;100314.19;6316328;20;2739897;-47
2023/10/04 07:25:49;;;;;;;;;2.00;2.00;;;;;18.92;66.63;100312.25;6318741;20;2738939;-45
2023/10/04 07:28:17;;;;;;;;;2.00;2.00;;;;;18.94;66.16;100310.25;6316957;20;2754478;-45
2023/10/04 07:30:47;;;;;;;;;1.00;1.00;;;;;18.69;66.56;100312.31;6318225;20;2736796;-46
2023/10/04 07:33:16;;;;;;;;;1.00;1.00;;;;;18.67;66.77;100327.06;6315529;20;2727573;-51
2023/10/04 07:35:45;;;;;;;;;2.67;1.00;;;;;18.65;65.95;100328.06;6316962;20;2728542;-46
2023/10/04 07:38:13;;;;;;;;;2.00;1.00;;;;;18.65;66.16;100324.47;6318791;20;2737867;-49
2023/10/04 07:40:42;;;;;;;;;0.00;0.00;;;;;18.68;65.91;100331.53;6316134;20;2727469;-49
2023/10/04 07:43:10;;;;;;;;;2.67;2.00;;;;;18.63;66.15;100331.91;6315883;20;2752342;-48
2023/10/04 07:45:39;;;;;;;;;2.33;1.00;;;;;18.97;65.49;100329.03;6318920;20;2723202;-46
2023/10/04 07:48:12;;;;;;;;;2.67;1.00;;;;;18.92;64.97;100329.44;6313397;20;2729576;-45
2023/10/04 07:50:41;;;;;;;;;0.00;0.00;;;;;19.03;64.50;100334.81;6316136;20;2727452;-46
2023/10/04 07:53:10;;;;;;;;;2.60;1.00;;;;;19.12;64.51;100337.75;6339518;20;2723251;-48
2023/10/04 07:55:42;;;;;;;;;1.00;1.00;;;;;19.01;64.46;100345.00;6355421;20;2478428;-50
2023/10/04 07:58:14;;;;;;;;;0.00;0.00;;;;;18.76;65.19;100342.63;6355254;20;3429662;-46
2023/10/04 08:00:44;;;;;;;;;0.00;0.00;;;;;19.11;64.58;100344.16;6337569;20;2726367;-45
2023/10/04 08:03:14;;;;;;;;;2.00;2.00;;;;;19.16;63.76;100352.81;6317383;20;2737828;-47
2023/10/04 08:05:43;;;;;;;;;5.33;2.00;;;;;19.10;63.53;100351.47;6317815;20;2737804;-49
2023/10/04 08:08:11;;;;;;;;;2.00;2.00;;;;;19.11;63.50;100363.22;6317287;20;2732673;-47
2023/10/04 08:10:40;;;;;;;;;1.00;1.00;;;;;19.17;63.09;100387.19;6319093;20;2727366;-46
2023/10/04 08:13:10;;;;;;;;;1.00;1.00;;;;;19.64;62.20;100380.34;6315598;20;2732583;-46
2023/10/04 08:15:39;;;;;;;;;3.00;0.33;;;;;19.63;60.90;100381.31;6317645;20;2736761;-48
2023/10/04 08:18:08;;;;;;;;;1.00;1.00;;;;;19.85;60.98;100383.03;6315483;20;2730622;-49
2023/10/04 08:20:38;;;;;;;;;1.00;1.00;;;;;19.46;61.67;100390.13;6338003;20;2726409;-47
2023/10/04 08:23:06;;;;;;;;;1.67;0.67;;;;;19.17;62.29;100379.91;6315485;20;2727395;-49
2023/10/04 08:25:35;;;;;;;;;1.33;0.33;;;;;19.72;61.59;100391.44;6314089;20;2725337;-47
2023/10/04 08:28:08;;;;;;;;;0.67;0.67;;;;;18.96;63.20;100384.47;6316809;20;2735715;-48
2023/10/04 08:30:38;;;;;;;;;1.00;1.00;;;;;19.17;62.48;100392.63;6317725;20;2727366;-46
2023/10/04 08:33:08;;;;;;;;;1.20;1.20;;;;;20.06;60.33;100398.44;6339391;20;2730564;-48
2023/10/04 08:35:38;;;;;;;;;2.00;0.67;;;;;20.71;58.81;100399.78;6318365;20;2724238;-47
2023/10/04 08:38:07;;;;;;;;;0.67;0.67;;;;;19.64;60.52;100395.78;6316454;20;2731595;-48
2023/10/04 08:40:38;;;;;;;;;0.67;0.67;;;;;20.58;58.62;100401.91;6316835;20;2734071;-47
2023/10/04 08:43:08;;;;;;;;;1.00;1.00;;;;;20.12;59.02;100392.47;6314804;20;2736758;-51
2023/10/04 08:45:37;;;;;;;;;2.33;0.67;;;;;20.14;60.00;100390.44;6315182;20;2726328;-46
2023/10/04 08:48:07;;;;;;;;;1.00;1.00;;;;;20.93;56.89;100381.41;6338006;20;2739886;-50
2023/10/04 08:51:16;;;;;;;;;1.00;0.00;;;;;21.36;55.81;100397.31;6314141;20;2735677;-46
2023/10/04 08:54:24;;;;;;;;;0.00;0.00;;;;;20.48;57.63;100404.59;6312183;20;2731566;-50
2023/10/04 08:57:05;;;;;;;;;0.67;0.67;;;;;20.03;58.91;100401.47;6315895;20;2727537;-50
2023/10/04 08:59:34;;;;;;;;;3.00;0.67;;;;;20.06;59.24;100403.91;6314468;20;2722302;-45
2023/10/04 09:02:07;;;;;;;;;1.67;0.67;;;;;20.51;56.07;100403.44;6318916;20;2720138;-48
2023/10/04 09:04:39;;;;;;;;;0.67;0.67;;;;;21.13;55.78;100402.22;6315191;20;2732554;-46
2023/10/04 09:07:10;;;;;;;;;1.00;0.00;;;;;21.37;54.40;100420.03;6312825;20;2731528;-46
2023/10/04 09:09:41;;;;;;;;;1.20;1.20;;;;;21.41;53.66;100424.25;6339616;20;2728395;-50
2023/10/04 09:12:12;;;;;;;;;0.60;0.60;;;;;21.29;53.82;100423.47;6331725;20;2727544;-49
2023/10/04 09:14:42;;;;;;;;;1.00;1.00;;;;;20.97;54.61;100424.66;6340163;20;2724379;-49
2023/10/04 09:17:14;;;;;;;;;1.67;1.67;;;;;20.74;54.73;100415.88;6317856;20;2741987;-48
2023/10/04 09:19:45;;;;;;;;;1.67;0.67;;;;;20.94;54.68;100416.75;6322163;20;2727420;-50
2023/10/04 09:22:17;;;;;;;;;2.60;1.00;;;;;21.48;53.37;100420.78;6343703;20;2753606;-49
2023/10/04 09:24:57;;;;;;;;;3.60;1.60;;;;;21.38;52.92;100427.25;6311093;20;2754484;-46
2023/10/04 09:27:27;;;;;;;;;12.80;1.80;;;;;21.24;52.60;100429.38;6309772;20;2796112;-48
2023/10/04 09:29:57;;;;;;;;;2.00;1.00;;;;;21.36;52.78;100427.38;6290226;20;2739873;-50
2023/10/04 09:32:40;;;;;;;;;1.40;1.40;;;;;21.40;52.41;100438.88;6340399;20;2735716;-46
2023/10/04 09:35:10;;;;;;;;;1.00;1.00;;;;;20.91;53.55;100438.03;6343503;20;2737794;-48
2023/10/04 09:37:44;;;;;;;;;1.60;1.00;;;;;21.57;53.17;100431.84;6343345;20;2741958;-46
2023/10/04 09:40:16;;;;;;;;;0.60;0.20;;;;;21.91;51.23;100432.16;6340752;20;2720254;-49
2023/10/04 09:42:53;;;;;;;;;2.67;2.67;;;;;22.49;50.54;100425.59;6320547;20;2732610;-48
2023/10/04 09:45:24;;;;;;;;;2.60;0.20;;;;;21.40;52.63;100433.41;6342409;20;2724300;-46
2023/10/04 09:47:54;;;;;;;;;2.20;2.00;;;;;20.99;52.68;100429.97;6339915;20;2750294;-46
2023/10/04 09:50:31;;;;;;;;;2.20;2.20;;;;;20.61;53.26;100432.50;6309440;20;2754459;-50
2023/10/04 09:53:02;;;;;;;;;2.80;1.60;;;;;20.61;52.55;100442.56;6309017;20;2744077;-52
2023/10/04 09:55:35;;;;;;;;;0.80;0.80;;;;;20.44;52.12;100435.03;6339319;20;2724285;-51
2023/10/04 09:58:07;;;;;;;;;1.60;1.60;;;;;20.61;52.48;100437.97;6338032;20;2748221;-50
2023/10/04 10:00:35;;;;;;;;;2.00;1.33;;;;;20.52;51.62;100433.34;6315945;20;2739877;-47
2023/10/04 10:03:12;;;;;;;;;2.67;2.33;;;;;20.79;51.26;100435.41;6317806;20;2750376;-53
2023/10/04 10:05:43;;;;;;;;;2.80;2.60;;;;;20.66;51.53;100434.81;6340855;20;2746156;-49
2023/10/04 10:08:17;;;;;;;;;5.80;5.00;;;;;20.90;51.04;100448.06;6306816;20;2748264;-49
2023/10/04 10:10:48;;;;;;;;;1.80;1.80;;;;;21.82;48.13;100454.91;6308999;20;2733647;-50
2023/10/04 10:13:20;;;;;;;;;1.20;1.20;;;;;22.72;46.88;100453.38;6339904;20;2744028;-47
2023/10/04 10:15:53;;;;;;;;;1.80;1.80;;;;;22.68;47.28;100451.97;6337010;20;2752420;-49
2023/10/04 10:18:24;;;;;;;;;0.00;0.00;;;;;22.85;47.06;100453.84;6311801;20;2726382;-48
2023/10/04 10:20:55;;;;;;;;;0.00;0.00;;;;;22.83;45.89;100450.44;6338653;20;2724322;-51
2023/10/04 10:23:25;;;;;;;;;1.60;1.60;;;;;22.62;47.23;100453.44;6341496;20;2749259;-46
2023/10/04 10:26:19;;;;;;;;;2.80;1.60;;;;;22.39;47.28;100450.25;6306949;20;2752478;-46
2023/10/04 10:29:03;;;;;;;;;0.00;0.00;;;;;22.35;47.36;100457.03;6310892;20;2727412;-44
2023/10/04 10:31:33;;;;;;;;;1.00;1.00;;;;;22.23;47.41;100459.13;6337532;20;2756641;-45
2023/10/04 10:34:05;;;;;;;;;3.40;1.00;;;;;22.39;47.12;100458.47;6308948;20;2736751;-46
2023/10/04 10:36:36;;;;;;;;;3.40;2.40;;;;;22.61;46.69;100464.53;6340068;20;2756517;-47
2023/10/04 10:39:24;;;;;;;;;0.00;0.00;;;;;22.92;46.68;100470.53;6308403;20;2728423;-45
2023/10/04 10:41:55;;;;;;;;;4.00;4.00;;;;;23.50;46.59;100452.78;6339977;20;2748260;-48
2023/10/04 10:44:30;;;;;;;;;1.20;1.20;;;;;23.37;45.13;100456.78;6309009;20;2739941;-46
2023/10/04 10:47:18;;;;;;;;;0.60;0.40;;;;;23.69;45.14;100463.53;6306198;20;2730563;-46
2023/10/04 10:50:03;;;;;;;;;2.40;2.40;;;;;23.27;46.42;100455.16;6342213;20;2751424;-45
2023/10/04 10:52:46;;;;;;;;;4.33;4.33;;;;;23.18;46.54;100454.22;6284719;20;2740991;-49
2023/10/04 10:55:17;;;;;;;;;1.00;1.00;;;;;23.27;46.95;100458.75;6339463;20;2741954;-47
2023/10/04 10:57:48;;;;;;;;;3.80;3.80;;;;;23.55;46.28;100456.75;6336712;20;2736754;-48
2023/10/04 11:02:52;;;;;;;;;2.60;2.20;;;;;23.75;45.77;100451.97;6305308;20;2739888;-46
2023/10/04 11:05:25;;;;;;;;;0.80;0.80;;;;;23.10;45.67;100445.94;6309118;20;2741987;-46
2023/10/04 11:07:56;;;;;;;;;1.00;1.00;;;;;23.41;45.32;100449.13;6339020;20;2730526;-46
2023/10/04 11:10:26;;;;;;;;;8.80;5.20;;;;;22.92;46.07;100454.97;6338845;20;2744042;-47
2023/10/04 11:13:03;;;;;;;;;3.60;3.60;;;;;22.87;45.10;100456.44;6309138;20;2756552;-45
2023/10/04 11:15:33;;;;;;;;;1.60;1.60;;;;;23.40;44.28;100450.97;6309417;20;2748224;-47
2023/10/04 11:18:06;;;;;;;;;2.00;2.00;;;;;23.21;44.34;100453.91;6308507;20;2743068;-49
2023/10/04 11:20:38;;;;;;;;;1.00;1.00;;;;;23.35;43.65;100439.63;6310642;20;2728510;-45
2023/10/04 11:23:10;;;;;;;;;0.20;0.20;;;;;23.68;43.87;100434.41;6335255;20;2735801;-46
2023/10/04 11:25:40;;;;;;;;;2.00;0.60;;;;;22.99;43.28;100442.41;6337953;20;2729425;-46